createdAt,value
2023-03-06T00:01:22.924Z,66.24
2023-03-06T00:06:27.032Z,66.11
2023-03-06T00:11:30.285Z,66.28
2023-03-06T00:16:33.567Z,66.16
2023-03-06T00:21:36.953Z,66.28
2023-03-06T00:26:41.507Z,66.01
2023-03-06T00:31:48.232Z,66.12
2023-03-06T00:36:51.651Z,66.18
2023-03-06T00:41:55.847Z,65.96
2023-03-06T00:47:01.383Z,66.08
2023-03-06T00:52:05.499Z,65.91
2023-03-06T00:57:09.437Z,66.01
2023-03-06T01:02:13.386Z,66.10
2023-03-06T01:07:16.741Z,66.08
2023-03-06T01:12:22.799Z,66.10
2023-03-06T01:17:27.426Z,65.91
2023-03-06T01:22:31.149Z,65.40
2023-03-06T01:27:36.118Z,65.09
2023-03-06T01:32:39.870Z,64.82
2023-03-06T01:37:43.596Z,64.45
2023-03-06T01:42:49.653Z,64.38
2023-03-06T01:47:52.902Z,64.21
2023-03-06T01:52:59.666Z,64.02
2023-03-06T01:58:14.652Z,64.24
2023-03-06T02:03:25.093Z,64.46
2023-03-06T02:08:30.034Z,64.47
2023-03-06T02:13:33.641Z,65.00
2023-03-06T02:18:38.372Z,65.17
2023-03-06T02:24:17.205Z,65.32
2023-03-06T02:29:25.082Z,65.26
2023-03-06T02:34:28.438Z,65.02
2023-03-06T02:39:34.742Z,64.92
2023-03-06T02:44:38.685Z,64.67
2023-03-06T02:49:41.920Z,64.74
2023-03-06T02:54:45.304Z,64.54
2023-03-06T02:59:48.581Z,64.54
2023-03-06T03:04:52.641Z,64.70
2023-03-06T03:09:56.390Z,64.79
2023-03-06T03:15:00.168Z,64.95
2023-03-06T03:20:07.941Z,65.12
2023-03-06T03:25:11.630Z,65.28
2023-03-06T03:30:15.748Z,65.44
2023-03-06T03:35:19.405Z,65.89
2023-03-06T03:40:23.499Z,66.05
2023-03-06T03:45:27.463Z,66.08
2023-03-06T03:50:31.035Z,66.37
2023-03-06T03:55:34.346Z,66.37
2023-03-06T04:00:37.838Z,66.53
2023-03-06T04:05:45.393Z,66.39
2023-03-06T04:10:51.516Z,66.44
2023-03-06T04:15:55.921Z,66.52
2023-03-06T04:20:59.801Z,66.25
2023-03-06T04:26:04.427Z,66.08
2023-03-06T04:31:07.770Z,65.98
2023-03-06T04:36:31.316Z,66.11
2023-03-06T04:41:37.954Z,66.23
2023-03-06T04:46:41.527Z,66.13
2023-03-06T04:51:44.783Z,66.56
2023-03-06T04:56:47.930Z,66.53
2023-03-06T05:01:51.196Z,66.50
2023-03-06T05:06:54.938Z,66.49
2023-03-06T05:11:58.940Z,66.66
2023-03-06T05:17:02.530Z,66.79
2023-03-06T05:22:05.949Z,66.77
2023-03-06T05:27:09.216Z,66.43
2023-03-06T05:32:12.805Z,66.40
2023-03-06T05:37:17.164Z,66.14
2023-03-06T05:42:20.893Z,66.43
2023-03-06T05:47:24.377Z,65.77
2023-03-06T05:52:27.620Z,65.96
2023-03-06T05:57:30.831Z,65.46
2023-03-06T06:02:34.011Z,65.31
2023-03-06T06:07:37.569Z,65.63
2023-03-06T06:12:41.092Z,65.88
2023-03-06T06:17:44.261Z,65.88
2023-03-06T06:22:47.390Z,66.13
2023-03-06T06:27:50.770Z,65.80
2023-03-06T06:32:54.094Z,65.83
2023-03-06T06:37:57.289Z,65.97
2023-03-06T06:43:00.710Z,65.74
2023-03-06T06:48:04.623Z,65.14
2023-03-06T06:53:07.794Z,65.17
2023-03-06T06:58:11.255Z,65.18
2023-03-06T07:03:15.063Z,64.43
2023-03-06T07:08:18.518Z,64.11
2023-03-06T07:13:22.044Z,63.66
2023-03-06T07:18:25.300Z,63.59
2023-03-06T07:23:28.690Z,63.18
2023-03-06T07:28:46.208Z,63.04
2023-03-06T07:33:55.638Z,62.92
2023-03-06T07:38:58.891Z,62.61
2023-03-06T07:44:02.771Z,61.81
2023-03-06T07:49:06.519Z,61.30
2023-03-06T07:54:10.225Z,61.20
2023-03-06T07:59:13.609Z,60.98
2023-03-06T08:04:17.627Z,60.20
2023-03-06T08:09:21.243Z,59.93
2023-03-06T08:14:24.594Z,59.46
2023-03-06T08:19:27.735Z,59.17
2023-03-06T08:24:31.299Z,58.58
2023-03-06T08:29:35.272Z,58.15
2023-03-06T08:34:40.149Z,57.32
2023-03-06T08:39:43.540Z,57.06
2023-03-06T08:44:47.035Z,56.50
2023-03-06T08:49:50.835Z,57.10
2023-03-06T08:54:54.266Z,56.71
2023-03-06T08:59:58.073Z,55.53
2023-03-06T09:05:01.593Z,55.30
2023-03-06T09:10:05.275Z,54.89
2023-03-06T09:15:09.529Z,54.40
2023-03-06T09:20:13.604Z,54.07
2023-03-06T09:25:20.626Z,54.14
2023-03-06T09:30:24.091Z,52.59
2023-03-06T09:35:27.328Z,51.63
2023-03-06T09:41:02.858Z,51.53
2023-03-06T09:46:43.010Z,50.79
2023-03-06T09:52:00.931Z,49.30
2023-03-06T09:57:14.672Z,49.74
2023-03-06T10:02:28.944Z,49.48
2023-03-06T10:08:02.616Z,49.50
2023-03-06T10:13:17.138Z,49.23
2023-03-06T10:18:20.820Z,49.60
2023-03-06T10:23:33.593Z,48.08
2023-03-06T10:28:55.410Z,47.71
2023-03-06T10:34:17.330Z,46.58
2023-03-06T10:39:22.880Z,46.05
2023-03-06T10:44:26.143Z,46.84
2023-03-06T10:49:34.910Z,46.01
2023-03-06T10:54:50.905Z,44.73
2023-03-06T11:00:01.227Z,42.02
2023-03-06T11:05:06.716Z,42.18
2023-03-06T11:10:19.338Z,42.00
2023-03-06T11:15:23.655Z,41.16
2023-03-06T11:20:48.615Z,41.42
2023-03-06T11:26:23.039Z,41.61
2023-03-06T11:31:32.652Z,41.20
2023-03-06T11:37:06.866Z,39.88
2023-03-06T11:42:26.672Z,39.59
2023-03-06T11:47:36.943Z,40.05
2023-03-06T11:52:43.395Z,39.94
2023-03-06T11:57:57.351Z,40.06
2023-03-06T12:03:27.485Z,39.79
2023-03-06T12:09:13.288Z,40.23
2023-03-06T12:14:37.735Z,40.21
2023-03-06T12:19:53.669Z,39.92
2023-03-06T12:25:33.912Z,40.34
2023-03-06T12:30:46.197Z,40.33
2023-03-06T12:35:55.696Z,40.64
2023-03-06T12:41:31.115Z,40.56
2023-03-06T12:46:39.871Z,40.89
2023-03-06T12:51:46.310Z,40.93
2023-03-06T12:56:51.241Z,40.74
2023-03-06T13:02:35.390Z,41.05
2023-03-06T13:08:03.819Z,40.89
2023-03-06T13:13:26.187Z,40.63
2023-03-06T13:18:35.402Z,40.64
2023-03-06T13:23:51.951Z,41.02
2023-03-06T13:28:58.408Z,41.03
2023-03-06T13:34:04.087Z,40.69
2023-03-06T13:39:09.526Z,40.91
2023-03-06T13:44:25.438Z,41.67
2023-03-06T13:49:29.676Z,42.22
2023-03-06T13:54:51.672Z,42.14
2023-03-06T14:00:09.516Z,41.61
2023-03-06T14:05:15.725Z,41.31
2023-03-06T14:10:26.346Z,42.48
2023-03-06T14:15:32.343Z,45.75
2023-03-06T14:20:50.692Z,48.23
2023-03-06T14:26:03.233Z,50.24
2023-03-06T14:31:07.352Z,51.13
2023-03-06T14:36:14.732Z,51.90
2023-03-06T14:41:29.393Z,52.56
2023-03-06T14:46:32.917Z,52.93
2023-03-06T14:51:50.632Z,53.67
2023-03-06T14:57:02.885Z,54.18
2023-03-06T15:02:09.986Z,54.02
2023-03-06T15:07:18.100Z,53.54
2023-03-06T15:12:21.692Z,53.14
2023-03-06T15:17:30.453Z,52.64
2023-03-06T15:22:38.752Z,51.43
2023-03-06T15:27:52.424Z,50.77
2023-03-06T15:33:09.375Z,49.60
2023-03-06T15:38:41.205Z,49.18
2023-03-06T15:43:44.482Z,48.81
2023-03-06T15:48:56.580Z,48.21
2023-03-06T15:54:11.246Z,48.12
2023-03-06T15:59:24.936Z,47.85
2023-03-06T16:04:28.842Z,47.26
2023-03-06T16:09:33.158Z,46.69
2023-03-06T16:14:36.417Z,45.85
2023-03-06T16:19:39.889Z,46.19
2023-03-06T16:24:43.540Z,45.87
2023-03-06T16:29:46.971Z,45.83
2023-03-06T16:34:50.456Z,45.69
2023-03-06T16:39:54.022Z,45.12
2023-03-06T16:45:00.111Z,45.20
2023-03-06T16:50:05.319Z,44.79
2023-03-06T16:55:09.048Z,44.87
2023-03-06T17:00:13.717Z,45.04
2023-03-06T17:05:19.812Z,45.18
2023-03-06T17:10:26.563Z,45.01
2023-03-06T17:15:29.854Z,45.35
2023-03-06T17:20:33.373Z,46.09
2023-03-06T17:25:38.665Z,46.77
2023-03-06T17:30:42.084Z,47.73
2023-03-06T17:35:45.509Z,48.34
2023-03-06T17:40:48.704Z,49.22
2023-03-06T17:45:51.848Z,49.60
2023-03-06T17:50:56.207Z,50.22
2023-03-06T17:55:59.763Z,50.52
2023-03-06T18:01:21.440Z,51.19
2023-03-06T18:06:27.748Z,51.51
2023-03-06T18:11:32.463Z,51.88
2023-03-06T18:16:35.857Z,52.16
2023-03-06T18:21:40.055Z,52.62
2023-03-06T18:26:43.958Z,52.80
2023-03-06T18:31:50.218Z,53.28
2023-03-06T18:36:53.575Z,53.35
2023-03-06T18:41:56.900Z,53.55
2023-03-06T18:47:00.098Z,53.99
2023-03-06T18:52:03.580Z,53.95
2023-03-06T18:57:07.501Z,54.73
2023-03-06T19:02:12.448Z,54.75
2023-03-06T19:07:15.917Z,54.50
2023-03-06T19:12:19.467Z,54.52
2023-03-06T19:17:24.946Z,54.73
2023-03-06T19:22:28.370Z,55.57
2023-03-06T19:27:32.809Z,55.92
2023-03-06T19:32:36.260Z,55.64
2023-03-06T19:37:39.863Z,55.68
2023-03-06T19:42:43.194Z,56.30
2023-03-06T19:47:47.058Z,56.42
2023-03-06T19:52:52.932Z,56.58
2023-03-06T19:57:56.211Z,56.60
2023-03-06T20:02:59.929Z,56.55
2023-03-06T20:08:03.990Z,56.63
2023-03-06T20:13:09.169Z,56.74
2023-03-06T20:18:12.993Z,57.01
2023-03-06T20:23:16.738Z,57.03
2023-03-06T20:28:19.969Z,56.97
2023-03-06T20:33:23.213Z,57.28
2023-03-06T20:38:26.601Z,57.62
2023-03-06T20:43:29.932Z,57.75
2023-03-06T20:48:33.257Z,57.82
2023-03-06T20:53:36.929Z,57.68
2023-03-06T20:58:40.104Z,58.03
2023-03-06T21:03:44.014Z,57.96
2023-03-06T21:08:47.932Z,57.80
2023-03-06T21:13:52.876Z,57.68
2023-03-06T21:18:57.566Z,57.64
2023-03-06T21:24:01.980Z,57.71
2023-03-06T21:29:05.748Z,58.02
2023-03-06T21:34:09.096Z,58.08
2023-03-06T21:39:18.584Z,58.29
2023-03-06T21:44:21.810Z,58.49
2023-03-06T21:49:26.285Z,58.49
2023-03-06T21:54:29.601Z,58.60
2023-03-06T21:59:32.890Z,58.46
2023-03-06T22:04:37.123Z,58.67
2023-03-06T22:09:40.481Z,58.72
2023-03-06T22:14:44.161Z,58.71
2023-03-06T22:19:49.059Z,58.68
2023-03-06T22:24:52.379Z,58.95
2023-03-06T22:29:55.773Z,58.79
2023-03-06T22:34:59.528Z,59.22
2023-03-06T22:40:03.210Z,59.05
2023-03-06T22:45:06.969Z,59.16
2023-03-06T22:50:11.222Z,59.35
2023-03-06T22:55:14.737Z,59.17
2023-03-06T23:00:18.690Z,59.21
2023-03-06T23:05:22.242Z,59.21
2023-03-06T23:10:26.170Z,59.43
2023-03-06T23:15:48.542Z,59.23
2023-03-06T23:21:15.366Z,59.68
2023-03-06T23:26:37.794Z,59.43
2023-03-06T23:31:41.162Z,59.38
2023-03-06T23:36:44.490Z,59.26
2023-03-06T23:41:47.927Z,58.90
2023-03-06T23:46:51.583Z,58.78
2023-03-06T23:51:55.200Z,59.10
2023-03-06T23:56:58.917Z,59.04
